createdAt,value
2022-11-18T00:01:34.797Z,98889.13
2022-11-18T00:04:01.286Z,98890.59
2022-11-18T00:06:29.282Z,98884.09
2022-11-18T00:08:56.420Z,98881.81
2022-11-18T00:11:57.178Z,98881.81
2022-11-18T00:14:27.352Z,98880.16
2022-11-18T00:16:56.906Z,98876.38
2022-11-18T00:19:28.925Z,98883.06
2022-11-18T00:21:55.516Z,98883.91
2022-11-18T00:24:22.087Z,98874.63
2022-11-18T00:26:48.804Z,98875.03
2022-11-18T00:29:16.142Z,98877.88
2022-11-18T00:31:43.187Z,98876.69
2022-11-18T00:34:13.225Z,98883.91
2022-11-18T00:36:40.584Z,98875.13
2022-11-18T00:39:07.111Z,98874.41
2022-11-18T00:41:52.197Z,98874.50
2022-11-18T00:44:18.619Z,98869.81
2022-11-18T00:46:45.253Z,98871.16
2022-11-18T00:49:11.695Z,98875.75
2022-11-18T00:51:38.143Z,98875.13
2022-11-18T00:54:04.691Z,98870.03
2022-11-18T00:56:31.360Z,98871.91
2022-11-18T00:58:57.945Z,98877.25
2022-11-18T01:01:24.721Z,98869.50
2022-11-18T01:03:51.226Z,98874.09
2022-11-18T01:06:17.877Z,98869.28
2022-11-18T01:08:44.610Z,98869.94
2022-11-18T01:11:30.039Z,98876.28
2022-11-18T01:13:56.464Z,98872.00
2022-11-18T01:16:25.092Z,98870.22
2022-11-18T01:18:51.556Z,98866.44
2022-11-18T01:21:18.098Z,98875.34
2022-11-18T01:23:45.022Z,98870.03
2022-11-18T01:26:13.646Z,98860.56
2022-11-18T01:28:40.250Z,98860.34
2022-11-18T01:31:14.623Z,98854.09
2022-11-18T01:33:41.819Z,98861.78
2022-11-18T01:36:22.975Z,98856.78
2022-11-18T01:38:50.019Z,98853.25
2022-11-18T01:41:17.115Z,98864.91
2022-11-18T01:43:58.807Z,98850.00
2022-11-18T01:46:30.344Z,98850.53
2022-11-18T01:49:08.378Z,98843.66
2022-11-18T01:51:39.328Z,98842.19
2022-11-18T01:54:08.784Z,98844.47
2022-11-18T01:56:40.244Z,98843.75
2022-11-18T01:59:09.622Z,98838.94
2022-11-18T02:01:36.196Z,98836.31
2022-11-18T02:04:02.711Z,98822.66
2022-11-18T02:06:29.142Z,98825.91
2022-11-18T02:08:56.523Z,98830.66
2022-11-18T02:11:42.060Z,98831.38
2022-11-18T02:14:09.857Z,98830.47
2022-11-18T02:17:00.142Z,98831.69
2022-11-18T02:19:49.158Z,98828.53
2022-11-18T02:22:52.160Z,98833.13
2022-11-18T02:25:33.835Z,98834.81
2022-11-18T02:28:18.035Z,98831.97
2022-11-18T02:31:12.972Z,98831.56
2022-11-18T02:33:54.850Z,98838.75
2022-11-18T02:36:40.838Z,98841.25
2022-11-18T02:39:17.807Z,98838.16
2022-11-18T02:41:46.298Z,98836.47
2022-11-18T02:44:16.015Z,98833.53
2022-11-18T02:46:45.298Z,98831.66
2022-11-18T02:49:21.568Z,98827.22
2022-11-18T02:51:49.279Z,98828.88
2022-11-18T02:54:17.305Z,98830.66
2022-11-18T02:56:44.572Z,98829.59
2022-11-18T02:59:11.079Z,98822.25
2022-11-18T03:01:37.683Z,98829.38
2022-11-18T03:04:04.272Z,98829.50
2022-11-18T03:06:36.952Z,98832.09
2022-11-18T03:09:14.734Z,98826.88
2022-11-18T03:11:55.803Z,98820.94
2022-11-18T03:14:51.447Z,98822.69
2022-11-18T03:17:20.733Z,98810.59
2022-11-18T03:20:03.267Z,98817.28
2022-11-18T03:22:46.717Z,98810.09
2022-11-18T03:25:23.909Z,98807.41
2022-11-18T03:28:27.823Z,98797.72
2022-11-18T03:30:59.129Z,98804.16
2022-11-18T03:33:31.396Z,98799.81
2022-11-18T03:35:58.965Z,98792.91
2022-11-18T03:38:29.872Z,98791.50
2022-11-18T03:41:00.867Z,98793.13
2022-11-18T03:43:31.680Z,98794.41
2022-11-18T03:46:04.995Z,98791.22
2022-11-18T03:48:34.649Z,98803.00
2022-11-18T03:51:06.551Z,98797.19
2022-11-18T03:53:35.455Z,98801.97
2022-11-18T03:56:17.727Z,98801.84
2022-11-18T03:58:56.062Z,98797.19
2022-11-18T04:01:34.723Z,98797.56
2022-11-18T04:04:01.418Z,98804.69
2022-11-18T04:06:43.130Z,98802.28
2022-11-18T04:09:13.934Z,98800.28
2022-11-18T04:12:03.136Z,98798.94
2022-11-18T04:14:32.217Z,98803.72
2022-11-18T04:16:58.762Z,98802.19
2022-11-18T04:19:25.258Z,98809.25
2022-11-18T04:21:51.786Z,98807.81
2022-11-18T04:24:18.247Z,98803.22
2022-11-18T04:26:44.840Z,98803.53
2022-11-18T04:29:11.357Z,98804.13
2022-11-18T04:31:37.848Z,98804.56
2022-11-18T04:34:04.348Z,98794.66
2022-11-18T04:36:30.778Z,98797.91
2022-11-18T04:38:57.179Z,98799.84
2022-11-18T04:41:43.845Z,98791.94
2022-11-18T04:44:13.177Z,98795.38
2022-11-18T04:46:43.625Z,98796.53
2022-11-18T04:49:11.733Z,98795.38
2022-11-18T04:51:38.147Z,98792.78
2022-11-18T04:54:04.901Z,98796.59
2022-11-18T04:56:31.665Z,98792.13
2022-11-18T04:59:02.751Z,98794.13
2022-11-18T05:01:29.906Z,98800.81
2022-11-18T05:03:56.930Z,98791.34
2022-11-18T05:06:23.854Z,98793.41
2022-11-18T05:08:50.341Z,98794.88
2022-11-18T05:11:35.797Z,98790.50
2022-11-18T05:14:02.376Z,98796.94
2022-11-18T05:16:28.927Z,98801.34
2022-11-18T05:18:55.508Z,98796.75
2022-11-18T05:21:21.916Z,98794.78
2022-11-18T05:23:48.569Z,98798.22
2022-11-18T05:26:15.206Z,98796.94
2022-11-18T05:28:41.655Z,98797.69
2022-11-18T05:31:09.599Z,98790.50
2022-11-18T05:33:36.626Z,98793.63
2022-11-18T05:36:11.081Z,98790.50
2022-11-18T05:38:37.880Z,98788.84
2022-11-18T05:41:05.037Z,98787.16
2022-11-18T05:43:31.648Z,98783.50
2022-11-18T05:45:58.877Z,98782.97
2022-11-18T05:48:25.705Z,98786.72
2022-11-18T05:50:54.067Z,98783.28
2022-11-18T05:53:24.887Z,98782.34
2022-11-18T05:55:57.566Z,98776.31
2022-11-18T05:58:24.237Z,98780.34
2022-11-18T06:00:52.775Z,98783.38
2022-11-18T06:03:26.205Z,98783.91
2022-11-18T06:05:58.587Z,98789.00
2022-11-18T06:08:29.788Z,98785.06
2022-11-18T06:10:56.328Z,98785.97
2022-11-18T06:13:50.438Z,98781.28
2022-11-18T06:16:18.929Z,98788.78
2022-11-18T06:18:45.544Z,98790.41
2022-11-18T06:21:12.111Z,98789.34
2022-11-18T06:23:40.367Z,98790.09
2022-11-18T06:26:07.881Z,98791.66
2022-11-18T06:28:34.570Z,98795.81
2022-11-18T06:31:00.996Z,98799.84
2022-11-18T06:33:27.467Z,98794.66
2022-11-18T06:35:54.584Z,98791.31
2022-11-18T06:38:24.637Z,98796.13
2022-11-18T06:40:51.881Z,98797.47
2022-11-18T06:43:37.282Z,98793.41
2022-11-18T06:46:24.258Z,98790.78
2022-11-18T06:48:51.363Z,98800.56
2022-11-18T06:51:18.214Z,98804.53
2022-11-18T06:53:44.874Z,98801.81
2022-11-18T06:56:13.863Z,98803.19
2022-11-18T06:58:40.518Z,98807.66
2022-11-18T07:01:17.919Z,98807.56
2022-11-18T07:03:46.046Z,98804.84
2022-11-18T07:06:15.076Z,98804.47
2022-11-18T07:08:41.874Z,98800.50
2022-11-18T07:11:11.409Z,98810.09
2022-11-18T07:13:43.177Z,98814.03
2022-11-18T07:16:13.014Z,98817.91
2022-11-18T07:18:41.417Z,98818.84
2022-11-18T07:21:10.328Z,98816.53
2022-11-18T07:23:37.005Z,98818.41
2022-11-18T07:26:04.008Z,98819.03
2022-11-18T07:28:30.790Z,98814.34
2022-11-18T07:31:05.223Z,98816.13
2022-11-18T07:33:32.656Z,98823.63
2022-11-18T07:36:04.585Z,98820.31
2022-11-18T07:38:31.381Z,98825.09
2022-11-18T07:41:04.734Z,98830.94
2022-11-18T07:43:31.272Z,98820.09
2022-11-18T07:45:57.812Z,98824.81
2022-11-18T07:48:24.264Z,98831.16
2022-11-18T07:50:52.388Z,98836.38
2022-11-18T07:53:18.980Z,98838.25
2022-11-18T07:55:45.832Z,98841.50
2022-11-18T07:58:12.294Z,98836.47
2022-11-18T08:00:38.755Z,98843.75
2022-11-18T08:03:06.505Z,98835.00
2022-11-18T08:05:33.090Z,98839.28
2022-11-18T08:07:59.780Z,98842.72
2022-11-18T08:10:26.184Z,98843.03
2022-11-18T08:12:52.669Z,98848.88
2022-11-18T08:15:19.187Z,98852.31
2022-11-18T08:17:46.049Z,98859.31
2022-11-18T08:20:12.589Z,98856.56
2022-11-18T08:22:39.381Z,98851.56
2022-11-18T08:25:06.339Z,98862.22
2022-11-18T08:27:32.819Z,98859.69
2022-11-18T08:29:59.307Z,98873.03
2022-11-18T08:32:25.952Z,98874.72
2022-11-18T08:34:52.673Z,98878.16
2022-11-18T08:37:19.300Z,98869.09
2022-11-18T08:39:46.125Z,98869.50
2022-11-18T08:42:12.746Z,98872.84
2022-11-18T08:44:39.300Z,98868.16
2022-11-18T08:47:05.730Z,98871.38
2022-11-18T08:49:32.719Z,98867.81
2022-11-18T08:51:59.508Z,98877.13
2022-11-18T08:54:25.940Z,98877.03
2022-11-18T08:56:52.406Z,98879.53
2022-11-18T08:59:19.344Z,98880.78
2022-11-18T09:01:46.359Z,98878.25
2022-11-18T09:04:12.911Z,98885.44
2022-11-18T09:06:40.432Z,98880.34
2022-11-18T09:09:08.227Z,98881.69
2022-11-18T09:11:35.116Z,98883.03
2022-11-18T09:16:48.795Z,98881.38
2022-11-18T09:22:03.994Z,98878.47
2022-11-18T09:24:30.675Z,98884.69
2022-11-18T09:26:57.145Z,98887.53
2022-11-18T09:29:26.205Z,98880.47
2022-11-18T09:31:54.285Z,98876.50
2022-11-18T09:34:21.488Z,98867.63
2022-11-18T09:36:48.007Z,98873.66
2022-11-18T09:39:14.671Z,98875.34
2022-11-18T09:41:45.507Z,98870.41
2022-11-18T09:44:36.679Z,98862.34
2022-11-18T09:47:25.549Z,98871.75
2022-11-18T09:49:55.287Z,98872.19
2022-11-18T09:52:35.890Z,98866.13
2022-11-18T09:55:11.753Z,98864.06
2022-11-18T09:57:40.463Z,98857.47
2022-11-18T10:00:14.854Z,98859.47
2022-11-18T10:02:51.147Z,98864.72
2022-11-18T10:05:24.093Z,98869.75
2022-11-18T10:08:02.003Z,98866.69
2022-11-18T10:10:40.042Z,98872.84
2022-11-18T10:13:18.619Z,98871.69
2022-11-18T10:16:18.114Z,98874.84
2022-11-18T10:19:00.302Z,98887.44
2022-11-18T10:21:49.680Z,98881.34
2022-11-18T10:24:21.890Z,98882.44
2022-11-18T10:26:58.460Z,98875.97
2022-11-18T10:29:25.493Z,98885.03
2022-11-18T10:32:12.914Z,98890.78
2022-11-18T10:34:58.852Z,98889.81
2022-11-18T10:40:27.440Z,98888.97
2022-11-18T10:42:57.265Z,98899.34
2022-11-18T10:45:23.617Z,98898.69
2022-11-18T10:48:09.602Z,98900.47
2022-11-18T10:50:44.499Z,98899.91
2022-11-18T10:53:33.647Z,98905.53
2022-11-18T10:56:05.106Z,98908.22
2022-11-18T10:58:32.904Z,98902.31
2022-11-18T11:01:08.049Z,98922.25
2022-11-18T11:03:42.508Z,98917.69
2022-11-18T11:06:27.109Z,98916.31
2022-11-18T11:08:56.478Z,98925.38
2022-11-18T11:11:31.543Z,98924.44
2022-11-18T11:14:22.470Z,98925.56
2022-11-18T11:17:02.837Z,98919.13
2022-11-18T11:19:36.808Z,98924.09
2022-11-18T11:22:05.120Z,98920.03
2022-11-18T11:24:31.567Z,98934.31
2022-11-18T11:30:14.894Z,98920.75
2022-11-18T11:33:22.690Z,98928.91
2022-11-18T11:36:18.153Z,98913.66
2022-11-18T11:39:01.314Z,98923.22
2022-11-18T11:41:38.030Z,98925.59
2022-11-18T11:44:07.501Z,98916.44
2022-11-18T11:47:09.150Z,98923.66
2022-11-18T11:49:42.840Z,98916.56
2022-11-18T11:52:17.149Z,98915.13
2022-11-18T11:54:49.447Z,98919.63
2022-11-18T11:57:53.710Z,98918.78
2022-11-18T12:00:20.531Z,98922.81
2022-11-18T12:03:38.896Z,98920.94
2022-11-18T12:06:07.513Z,98918.47
2022-11-18T12:08:34.145Z,98920.53
2022-11-18T12:11:37.744Z,98923.28
2022-11-18T12:14:13.482Z,98921.63
2022-11-18T12:16:50.236Z,98925.81
2022-11-18T12:19:19.420Z,98917.94
2022-11-18T12:21:46.218Z,98923.91
2022-11-18T12:24:34.455Z,98927.25
2022-11-18T12:27:06.276Z,98931.91
2022-11-18T12:29:43.628Z,98931.38
2022-11-18T12:32:42.210Z,98929.88
2022-11-18T12:35:11.564Z,98935.41
2022-11-18T12:37:44.095Z,98930.19
2022-11-18T12:40:30.803Z,98935.50
2022-11-18T12:43:15.704Z,98933.13
2022-11-18T12:45:45.926Z,98928.00
2022-11-18T12:48:27.730Z,98930.06
2022-11-18T12:50:56.769Z,98927.13
2022-11-18T12:53:42.810Z,98926.25
2022-11-18T12:56:22.283Z,98929.69
2022-11-18T12:58:54.616Z,98933.44
2022-11-18T13:01:26.743Z,98930.09
2022-11-18T13:04:06.941Z,98933.03
2022-11-18T13:06:35.007Z,98927.22
2022-11-18T13:09:03.613Z,98925.97
2022-11-18T13:11:47.513Z,98931.16
2022-11-18T13:15:08.406Z,98931.97
2022-11-18T13:17:52.496Z,98941.38
2022-11-18T13:20:35.441Z,98934.72
2022-11-18T13:23:24.409Z,98933.03
2022-11-18T13:25:51.059Z,98928.38
2022-11-18T13:28:37.677Z,98926.22
2022-11-18T13:31:19.640Z,98926.94
2022-11-18T13:33:46.413Z,98932.91
2022-11-18T13:36:17.855Z,98932.47
2022-11-18T13:39:02.022Z,98937.19
2022-11-18T13:41:33.739Z,98942.09
2022-11-18T13:44:17.854Z,98946.25
2022-11-18T13:46:47.816Z,98940.44
2022-11-18T13:49:18.734Z,98936.69
2022-11-18T13:51:46.252Z,98942.41
2022-11-18T13:54:20.973Z,98942.91
2022-11-18T13:56:47.707Z,98939.47
2022-11-18T13:59:18.572Z,98942.06
2022-11-18T14:01:46.199Z,98942.50
2022-11-18T14:04:21.633Z,98945.41
2022-11-18T14:06:49.487Z,98937.31
2022-11-18T14:09:27.039Z,98949.06
2022-11-18T14:12:02.952Z,98941.28
2022-11-18T14:14:37.155Z,98942.91
2022-11-18T14:17:22.875Z,98947.72
2022-11-18T14:19:51.647Z,98948.03
2022-11-18T14:22:25.778Z,98950.75
2022-11-18T14:24:59.038Z,98950.22
2022-11-18T14:27:40.217Z,98954.72
2022-11-18T14:30:28.891Z,98959.00
2022-11-18T14:33:15.700Z,98965.88
2022-11-18T14:35:51.982Z,98972.97
2022-11-18T14:38:57.534Z,98968.56
2022-11-18T14:41:14.444Z,98966.69
2022-11-18T14:43:41.543Z,98972.75
2022-11-18T14:46:14.403Z,98977.66
2022-11-18T14:48:41.082Z,98978.78
2022-11-18T14:51:10.392Z,98972.31
2022-11-18T14:53:36.864Z,98981.09
2022-11-18T14:56:04.369Z,98977.59
2022-11-18T14:58:30.875Z,98982.59
2022-11-18T15:00:57.460Z,98978.56
2022-11-18T15:03:24.200Z,98984.44
2022-11-18T15:05:50.905Z,98985.56
2022-11-18T15:08:17.346Z,98987.09
2022-11-18T15:10:43.948Z,98995.63
2022-11-18T15:13:10.500Z,98985.63
2022-11-18T15:15:36.987Z,98989.03
2022-11-18T15:18:03.538Z,99001.03
2022-11-18T15:20:30.252Z,98993.47
2022-11-18T15:22:56.768Z,99004.06
2022-11-18T15:25:23.456Z,99004.19
2022-11-18T15:27:50.032Z,99009.25
2022-11-18T15:30:16.559Z,99016.06
2022-11-18T15:32:43.190Z,99018.69
2022-11-18T15:35:11.826Z,99020.94
2022-11-18T15:37:38.594Z,99019.31
2022-11-18T15:40:05.338Z,99015.97
2022-11-18T15:42:32.042Z,99017.06
2022-11-18T15:44:58.451Z,99026.28
2022-11-18T15:47:25.177Z,99032.16
2022-11-18T15:49:51.764Z,99038.09
2022-11-18T15:52:18.966Z,99032.53
2022-11-18T15:54:45.549Z,99048.97
2022-11-18T15:57:12.213Z,99046.47
2022-11-18T15:59:38.637Z,99053.25
2022-11-18T16:02:05.116Z,99058.16
2022-11-18T16:04:31.763Z,99060.22
2022-11-18T16:07:00.230Z,99068.41
2022-11-18T16:09:46.868Z,99065.16
2022-11-18T16:12:31.845Z,99070.47
2022-11-18T16:15:18.523Z,99075.78
2022-11-18T16:17:45.019Z,99073.47
2022-11-18T16:20:12.094Z,99080.41
2022-11-18T16:22:38.505Z,99078.75
2022-11-18T16:25:05.274Z,99084.03
2022-11-18T16:27:31.980Z,99078.47
2022-11-18T16:29:58.738Z,99084.31
2022-11-18T16:32:25.211Z,99087.94
2022-11-18T16:34:55.268Z,99093.69
2022-11-18T16:37:24.509Z,99091.09
2022-11-18T16:39:50.982Z,99098.16
2022-11-18T16:42:17.577Z,99092.19
2022-11-18T16:44:44.148Z,99098.41
2022-11-18T16:47:15.004Z,99102.03
2022-11-18T16:49:42.136Z,99094.50
2022-11-18T16:52:09.271Z,99095.34
2022-11-18T16:54:41.013Z,99099.97
2022-11-18T16:57:09.654Z,99101.09
2022-11-18T16:59:36.796Z,99102.59
2022-11-18T17:02:03.726Z,99106.50
2022-11-18T17:04:30.672Z,99104.69
2022-11-18T17:06:59.916Z,99106.94
2022-11-18T17:09:26.859Z,99110.03
2022-11-18T17:11:55.350Z,99112.38
2022-11-18T17:14:23.168Z,99107.91
2022-11-18T17:16:49.976Z,99112.94
2022-11-18T17:19:18.828Z,99120.81
2022-11-18T17:21:46.019Z,99122.66
2022-11-18T17:24:17.311Z,99119.72
2022-11-18T17:26:44.242Z,99121.75
2022-11-18T17:29:12.464Z,99119.72
2022-11-18T17:31:39.520Z,99114.84
2022-11-18T17:34:06.621Z,99113.19
2022-11-18T17:36:33.245Z,99115.59
2022-11-18T17:39:00.558Z,99114.59
2022-11-18T17:41:46.937Z,99113.13
2022-11-18T17:44:15.721Z,99113.19
2022-11-18T17:46:42.531Z,99118.41
2022-11-18T17:49:18.005Z,99112.81
2022-11-18T17:51:46.042Z,99110.13
2022-11-18T17:54:14.234Z,99104.28
2022-11-18T17:56:40.880Z,99110.03
2022-11-18T17:59:07.490Z,99108.63
2022-11-18T18:01:34.235Z,99109.47
2022-11-18T18:04:00.719Z,99110.59
2022-11-18T18:06:27.308Z,99119.06
2022-11-18T18:08:57.323Z,99113.75
2022-11-18T18:11:25.500Z,99117.00
2022-11-18T18:14:11.146Z,99123.41
2022-11-18T18:16:39.210Z,99126.56
2022-11-18T18:19:07.534Z,99122.84
2022-11-18T18:21:35.669Z,99125.25
2022-11-18T18:24:03.547Z,99125.56
2022-11-18T18:26:31.949Z,99127.41
2022-11-18T18:28:59.950Z,99128.06
2022-11-18T18:31:26.749Z,99130.13
2022-11-18T18:33:53.343Z,99129.00
2022-11-18T18:36:20.555Z,99137.16
2022-11-18T18:38:47.447Z,99132.44
2022-11-18T18:41:19.903Z,99136.31
2022-11-18T18:43:47.115Z,99130.09
2022-11-18T18:46:34.323Z,99140.84
2022-11-18T18:49:22.354Z,99146.38
2022-11-18T18:51:55.638Z,99146.53
2022-11-18T18:54:22.359Z,99140.22
2022-11-18T18:56:49.080Z,99147.22
2022-11-18T18:59:15.635Z,99149.88
2022-11-18T19:01:42.260Z,99159.66
2022-11-18T19:04:13.005Z,99153.25
2022-11-18T19:09:26.898Z,99154.25
2022-11-18T19:12:12.479Z,99150.72
2022-11-18T19:14:39.604Z,99155.28
2022-11-18T19:17:10.633Z,99162.34
2022-11-18T19:19:56.569Z,99165.22
2022-11-18T19:22:23.192Z,99161.31
2022-11-18T19:27:38.793Z,99169.22
2022-11-18T19:30:07.295Z,99165.78
2022-11-18T19:32:40.823Z,99172.97
2022-11-18T19:35:08.265Z,99167.28
2022-11-18T19:37:34.946Z,99184.75
2022-11-18T19:40:07.103Z,99185.28
2022-11-18T19:42:37.653Z,99189.31
2022-11-18T19:45:05.152Z,99193.34
2022-11-18T19:47:32.175Z,99184.41
2022-11-18T19:49:58.693Z,99185.06
2022-11-18T19:52:25.167Z,99187.00
2022-11-18T19:54:51.754Z,99193.38
2022-11-18T19:57:18.257Z,99189.69
2022-11-18T19:59:45.872Z,99190.53
2022-11-18T20:02:12.831Z,99190.09
2022-11-18T20:04:39.356Z,99189.44
2022-11-18T20:07:06.206Z,99186.19
2022-11-18T20:09:32.810Z,99189.88
2022-11-18T20:11:59.389Z,99192.22
2022-11-18T20:14:25.831Z,99181.31
2022-11-18T20:16:52.416Z,99185.66
2022-11-18T20:19:19.183Z,99185.66
2022-11-18T20:21:47.960Z,99190.25
2022-11-18T20:24:16.604Z,99189.72
2022-11-18T20:26:43.269Z,99189.44
2022-11-18T20:29:10.221Z,99199.19
2022-11-18T20:31:37.171Z,99197.59
2022-11-18T20:34:04.197Z,99195.72
2022-11-18T20:36:33.237Z,99200.28
2022-11-18T20:39:05.073Z,99195.06
2022-11-18T20:41:32.448Z,99202.44
2022-11-18T20:44:01.058Z,99204.16
2022-11-18T20:46:27.685Z,99202.13
2022-11-18T20:48:57.807Z,99196.25
2022-11-18T20:51:26.835Z,99213.28
2022-11-18T20:53:55.455Z,99215.69
2022-11-18T20:56:25.680Z,99207.84
2022-11-18T20:58:52.461Z,99213.38
2022-11-18T21:01:23.101Z,99217.22
2022-11-18T21:03:52.764Z,99223.75
2022-11-18T21:06:19.998Z,99211.94
2022-11-18T21:08:46.571Z,99216.06
2022-11-18T21:11:13.680Z,99212.53
2022-11-18T21:13:59.670Z,99224.13
2022-11-18T21:16:27.145Z,99226.72
2022-11-18T21:18:53.674Z,99226.47
2022-11-18T21:21:38.876Z,99234.66
2022-11-18T21:24:05.691Z,99233.81
2022-11-18T21:26:34.170Z,99237.50
2022-11-18T21:29:01.947Z,99242.69
2022-11-18T21:31:28.877Z,99237.06
2022-11-18T21:33:56.064Z,99242.63
2022-11-18T21:36:23.606Z,99242.56
2022-11-18T21:38:50.467Z,99242.47
2022-11-18T21:41:17.147Z,99250.00
2022-11-18T21:44:04.518Z,99243.59
2022-11-18T21:46:31.032Z,99242.47
2022-11-18T21:49:00.249Z,99242.81
2022-11-18T21:51:27.244Z,99238.22
2022-11-18T21:53:56.346Z,99241.56
2022-11-18T21:56:25.275Z,99249.88
2022-11-18T21:58:52.636Z,99253.81
2022-11-18T22:01:21.511Z,99245.00
2022-11-18T22:03:54.986Z,99244.16
2022-11-18T22:06:24.208Z,99242.16
2022-11-18T22:08:51.341Z,99241.22
2022-11-18T22:11:18.243Z,99247.59
2022-11-18T22:13:44.772Z,99249.19
2022-11-18T22:16:13.397Z,99249.94
2022-11-18T22:18:42.287Z,99258.81
2022-11-18T22:21:12.220Z,99254.38
2022-11-18T22:23:38.783Z,99257.31
2022-11-18T22:26:15.061Z,99255.63
2022-11-18T22:28:41.911Z,99256.28
2022-11-18T22:31:11.868Z,99259.72
2022-11-18T22:33:38.492Z,99257.81
2022-11-18T22:36:10.071Z,99252.56
2022-11-18T22:38:36.997Z,99255.16
2022-11-18T22:41:06.044Z,99263.34
2022-11-18T22:43:33.549Z,99260.34
2022-11-18T22:46:08.769Z,99262.78
2022-11-18T22:48:35.549Z,99260.16
2022-11-18T22:51:04.261Z,99262.03
2022-11-18T22:53:31.803Z,99260.59
2022-11-18T22:56:09.134Z,99262.16
2022-11-18T22:58:35.554Z,99263.19
2022-11-18T23:01:03.929Z,99255.56
2022-11-18T23:03:31.066Z,99260.94
2022-11-18T23:05:58.002Z,99258.34
2022-11-18T23:08:24.525Z,99255.28
2022-11-18T23:10:51.268Z,99259.09
2022-11-18T23:13:36.928Z,99254.81
2022-11-18T23:16:03.491Z,99248.75
2022-11-18T23:18:30.151Z,99251.38
2022-11-18T23:21:01.053Z,99258.91
2022-11-18T23:23:28.548Z,99260.84
2022-11-18T23:25:55.487Z,99257.72
2022-11-18T23:28:22.121Z,99257.66
2022-11-18T23:30:48.777Z,99255.63
2022-11-18T23:33:15.309Z,99252.97
2022-11-18T23:35:41.782Z,99253.47
2022-11-18T23:38:08.207Z,99255.25
2022-11-18T23:40:34.784Z,99255.06
2022-11-18T23:43:01.234Z,99257.47
2022-11-18T23:45:27.638Z,99261.19
2022-11-18T23:47:54.627Z,99255.16
2022-11-18T23:50:21.051Z,99255.81
2022-11-18T23:52:47.555Z,99259.19
2022-11-18T23:55:14.009Z,99262.94
2022-11-18T23:57:40.437Z,99261.28
